Reno Tahoe International Airport
KRNO : now visible

Airfield :











YOU CAN JOIN US ON...

 
LOGIN :

Register | Disclaimer

   EN    FR    IT 

 









Legend :    VFR   Marginal VFR   IFR   Intensive IFR   Very Intensive IFR
Visi :
Ceiling :
>= 8 km
>= 3000ft
5 to 8 km
1000 to 3000 ft
1500m to 5 km
500 to 1000 ft
800 to 1500m
200 to 500 ft
< 800m
< 200 ft
Symbols :   Thunderstorms  Fog  Heavy snow  Heavy precipitations  Wind > 20 kt






- Airport Elevation : 4415 ft
- IATA code : RNO


KRNO - Reno Tahoe International

CURRENT METAR :
  • 171455Z 16004KT 10SM SCT050 SCT200 M03/M07 A3015 RMK AO2 SLP225 T10281067 53035 $

EXPIRED METARs :
  • 171355Z 33006KT 10SM SCT050 M02/M07 A3009 RMK AO2 SLP204 T10221072 $
  • 171255Z 26005KT 10SM SCT050 M01/M07 A3006 RMK AO2 SLP189 T10111072 $

TAF KRNO
Valid from the 17 at 12:00 until the 18 at 12:00 UTC


171120Z 1712/1812 16004KT P6SM BKN150



MET'MAP, your aeronautical weather chart ! - Copyright ORBIFLY December 2007 - Disclaimer

ORBIFLY MET'MAP TEAM :

Programming & Development : Alexandra Zaïnal
Concept & original design : Baudouin d'Aumeries
Assistance for programming : Marc-Olivier Méhu
Technical & hardware support : Manuel Goepfert

Contact : metmap@orbifly.com




SOURCES & CREDITS :

   NOAA       Earth
Advisory